Main page
METAR-TAF:

METAR-TAF

Airports :

Federico García Lorca Airport

Granada, Spain

latitude: 37-11N, longitude: 003-47W, elevation: 567 m

Current weather observation

The report was made 15 minutes ago, at 10:00 UTC
Wind 1 kt from variable directions
Temperature 13°C
Humidity 88%
Pressure 1017 hPa
Visibility 10 km or more
Few clouds at a height of 1500 ft
Scattered clouds at a height of 2700 ft
Broken clouds at a height of 5600 ft

METAR: LEGR 061000Z VRB01KT 9999 FEW015 SCT027 BKN056 13/11 Q1017

Time: 11:15 (10:15 UTC)

Forecast

The report was made 5 hours and 15 minutes ago, at 05:00 UTC
Forecast valid from 06 at 06 UTC to 07 at 06 UTC
Wind 2 kt from variable directions
Visibility 10 km or more
Scattered clouds at a height of 3000 ft
Probability 40% :
Temporary
from 06 at 06 UTC to 06 at 14 UTC
Broken clouds at a height of 1400 ft

TAF: LEGR 060500Z 0606/0706 VRB02KT 9999 SCT030 TX14/0615Z TN06/0606Z PROB40 TEMPO 0606/0614 BKN014

Weather observations and forecasts of more than 4000 airports (METAR and TAF reports).

The available stations are represented by yellow and red dots on the map.

Hover mouse over dot to see the name of the station.

Then click to see weather observations and forecasts.

To change the map : click on the green buttons with a black cross to zoom in, on the green button with a dash to zoom out, or on the green arrows for adjacent maps.


METAR-TAF: